sensor_id;sensor_type;location;lat;lon;timestamp;pressure;altitude;pressure_sealevel;temperature
20103;BMP180;10210;52.284;9.892;2022-09-20T00:01:24;100804.00;;;15.00
20103;BMP180;10210;52.284;9.892;2022-09-20T00:03:55;100801.00;;;15.10
20103;BMP180;10210;52.284;9.892;2022-09-20T00:06:25;100806.00;;;15.10
20103;BMP180;10210;52.284;9.892;2022-09-20T00:08:51;100809.00;;;15.10
20103;BMP180;10210;52.284;9.892;2022-09-20T00:11:25;100810.00;;;15.00
20103;BMP180;10210;52.284;9.892;2022-09-20T00:13:54;100811.00;;;15.00
20103;BMP180;10210;52.284;9.892;2022-09-20T00:16:24;100816.00;;;15.00
20103;BMP180;10210;52.284;9.892;2022-09-20T00:18:53;100818.00;;;15.00
20103;BMP180;10210;52.284;9.892;2022-09-20T00:21:26;100811.00;;;15.00
20103;BMP180;10210;52.284;9.892;2022-09-20T00:23:53;100808.00;;;15.00
20103;BMP180;10210;52.284;9.892;2022-09-20T00:26:19;100809.00;;;14.90
20103;BMP180;10210;52.284;9.892;2022-09-20T00:28:45;100808.00;;;14.90
20103;BMP180;10210;52.284;9.892;2022-09-20T00:31:12;100815.00;;;14.90
20103;BMP180;10210;52.284;9.892;2022-09-20T00:33:38;100810.00;;;14.90
20103;BMP180;10210;52.284;9.892;2022-09-20T00:36:22;100807.00;;;14.90
20103;BMP180;10210;52.284;9.892;2022-09-20T00:38:48;100807.00;;;14.90
20103;BMP180;10210;52.284;9.892;2022-09-20T00:41:14;100807.00;;;14.90
20103;BMP180;10210;52.284;9.892;2022-09-20T00:43:43;100816.00;;;14.90
20103;BMP180;10210;52.284;9.892;2022-09-20T00:46:38;100814.00;;;14.80
20103;BMP180;10210;52.284;9.892;2022-09-20T00:49:25;100811.00;;;14.80
20103;BMP180;10210;52.284;9.892;2022-09-20T00:51:57;100811.00;;;14.80
20103;BMP180;10210;52.284;9.892;2022-09-20T00:54:28;100812.00;;;14.80
20103;BMP180;10210;52.284;9.892;2022-09-20T00:56:54;100809.00;;;14.80
20103;BMP180;10210;52.284;9.892;2022-09-20T00:59:33;100812.00;;;14.80
20103;BMP180;10210;52.284;9.892;2022-09-20T01:02:08;100810.00;;;14.80
20103;BMP180;10210;52.284;9.892;2022-09-20T01:04:40;100808.00;;;14.80
20103;BMP180;10210;52.284;9.892;2022-09-20T01:07:10;100818.00;;;14.80
20103;BMP180;10210;52.284;9.892;2022-09-20T01:09:37;100816.00;;;14.80
20103;BMP180;10210;52.284;9.892;2022-09-20T01:12:08;100816.00;;;14.80
20103;BMP180;10210;52.284;9.892;2022-09-20T01:14:37;100811.00;;;14.70
20103;BMP180;10210;52.284;9.892;2022-09-20T01:17:05;100809.00;;;14.70
20103;BMP180;10210;52.284;9.892;2022-09-20T01:19:43;100816.00;;;14.70
20103;BMP180;10210;52.284;9.892;2022-09-20T01:28:45;100819.00;;;14.60
20103;BMP180;10210;52.284;9.892;2022-09-20T01:31:43;100809.00;;;14.50
20103;BMP180;10210;52.284;9.892;2022-09-20T01:34:15;100819.00;;;14.50
20103;BMP180;10210;52.284;9.892;2022-09-20T01:36:50;100822.00;;;14.50
20103;BMP180;10210;52.284;9.892;2022-09-20T01:42:13;100819.00;;;14.50
20103;BMP180;10210;52.284;9.892;2022-09-20T01:48:17;100813.00;;;14.40
20103;BMP180;10210;52.284;9.892;2022-09-20T01:54:16;100823.00;;;14.40
20103;BMP180;10210;52.284;9.892;2022-09-20T02:00:03;100818.00;;;14.40
20103;BMP180;10210;52.284;9.892;2022-09-20T02:03:23;100834.00;;;14.40
20103;BMP180;10210;52.284;9.892;2022-09-20T02:06:36;100830.00;;;14.40
20103;BMP180;10210;52.284;9.892;2022-09-20T02:12:40;100831.00;;;14.40
20103;BMP180;10210;52.284;9.892;2022-09-20T02:21:07;100843.00;;;14.50
20103;BMP180;10210;52.284;9.892;2022-09-20T02:23:59;100828.00;;;14.40
20103;BMP180;10210;52.284;9.892;2022-09-20T02:27:50;100829.00;;;14.50
20103;BMP180;10210;52.284;9.892;2022-09-20T02:29:59;100837.00;;;14.40
20103;BMP180;10210;52.284;9.892;2022-09-20T02:38:14;100838.00;;;14.50
20103;BMP180;10210;52.284;9.892;2022-09-20T02:44:08;100838.00;;;14.40
20103;BMP180;10210;52.284;9.892;2022-09-20T02:46:59;100843.00;;;14.40
20103;BMP180;10210;52.284;9.892;2022-09-20T02:55:19;100844.00;;;14.40
20103;BMP180;10210;52.284;9.892;2022-09-20T03:01:19;100844.00;;;14.30
20103;BMP180;10210;52.284;9.892;2022-09-20T03:04:25;100844.00;;;14.30
20103;BMP180;10210;52.284;9.892;2022-09-20T03:07:36;100853.00;;;14.30
20103;BMP180;10210;52.284;9.892;2022-09-20T03:16:38;100854.00;;;14.20
20103;BMP180;10210;52.284;9.892;2022-09-20T03:19:35;100851.00;;;14.20
20103;BMP180;10210;52.284;9.892;2022-09-20T03:31:47;100860.00;;;14.30
20103;BMP180;10210;52.284;9.892;2022-09-20T03:34:32;100858.00;;;14.30
20103;BMP180;10210;52.284;9.892;2022-09-20T03:37:34;100856.00;;;14.30
20103;BMP180;10210;52.284;9.892;2022-09-20T03:43:24;100867.00;;;14.40
20103;BMP180;10210;52.284;9.892;2022-09-20T03:57:57;100871.00;;;14.40
20103;BMP180;10210;52.284;9.892;2022-09-20T04:04:14;100870.00;;;14.40
20103;BMP180;10210;52.284;9.892;2022-09-20T04:07:03;100877.00;;;14.50
20103;BMP180;10210;52.284;9.892;2022-09-20T04:12:58;100884.00;;;14.40
20103;BMP180;10210;52.284;9.892;2022-09-20T04:18:54;100882.00;;;14.50
20103;BMP180;10210;52.284;9.892;2022-09-20T04:24:41;100889.00;;;14.50
20103;BMP180;10210;52.284;9.892;2022-09-20T04:27:41;100884.00;;;14.50
20103;BMP180;10210;52.284;9.892;2022-09-20T04:30:21;100887.00;;;14.50
20103;BMP180;10210;52.284;9.892;2022-09-20T04:33:24;100899.00;;;14.50
20103;BMP180;10210;52.284;9.892;2022-09-20T04:36:33;100887.00;;;14.50
20103;BMP180;10210;52.284;9.892;2022-09-20T04:45:24;100895.00;;;14.50
20103;BMP180;10210;52.284;9.892;2022-09-20T04:51:49;100911.00;;;14.50
20103;BMP180;10210;52.284;9.892;2022-09-20T05:17:34;100922.00;;;14.50
20103;BMP180;10210;52.284;9.892;2022-09-20T05:22:58;100926.00;;;14.60
20103;BMP180;10210;52.284;9.892;2022-09-20T05:25:56;100931.00;;;14.60
20103;BMP180;10210;52.284;9.892;2022-09-20T05:28:43;100928.00;;;14.60
20103;BMP180;10210;52.284;9.892;2022-09-20T05:34:35;100929.00;;;14.60
20103;BMP180;10210;52.284;9.892;2022-09-20T05:43:16;100938.00;;;14.70
20103;BMP180;10210;52.284;9.892;2022-09-20T05:46:13;100937.00;;;14.70
20103;BMP180;10210;52.284;9.892;2022-09-20T06:07:09;100963.00;;;14.80
20103;BMP180;10210;52.284;9.892;2022-09-20T06:09:59;100969.00;;;14.80
20103;BMP180;10210;52.284;9.892;2022-09-20T06:12:59;100972.00;;;14.70
20103;BMP180;10210;52.284;9.892;2022-09-20T06:18:26;100979.00;;;14.80
20103;BMP180;10210;52.284;9.892;2022-09-20T06:21:36;100972.00;;;14.80
20103;BMP180;10210;52.284;9.892;2022-09-20T06:24:32;100975.00;;;14.80
20103;BMP180;10210;52.284;9.892;2022-09-20T06:27:07;100976.00;;;14.80
20103;BMP180;10210;52.284;9.892;2022-09-20T06:29:42;100976.00;;;14.80
20103;BMP180;10210;52.284;9.892;2022-09-20T06:32:16;100972.00;;;14.80
20103;BMP180;10210;52.284;9.892;2022-09-20T06:34:42;100969.00;;;14.80
20103;BMP180;10210;52.284;9.892;2022-09-20T06:37:44;100977.00;;;14.70
20103;BMP180;10210;52.284;9.892;2022-09-20T06:40:42;100987.00;;;14.80
20103;BMP180;10210;52.284;9.892;2022-09-20T06:43:44;100987.00;;;14.80
20103;BMP180;10210;52.284;9.892;2022-09-20T06:46:10;100990.00;;;14.80
20103;BMP180;10210;52.284;9.892;2022-09-20T06:48:36;100985.00;;;14.80
20103;BMP180;10210;52.284;9.892;2022-09-20T06:51:06;100992.00;;;14.90
20103;BMP180;10210;52.284;9.892;2022-09-20T06:53:38;100985.00;;;14.90
20103;BMP180;10210;52.284;9.892;2022-09-20T06:56:08;100989.00;;;14.90
20103;BMP180;10210;52.284;9.892;2022-09-20T06:58:36;100987.00;;;14.90
20103;BMP180;10210;52.284;9.892;2022-09-20T07:01:02;100993.00;;;14.90
20103;BMP180;10210;52.284;9.892;2022-09-20T07:03:28;101000.00;;;15.00
20103;BMP180;10210;52.284;9.892;2022-09-20T07:05:53;101000.00;;;15.00
20103;BMP180;10210;52.284;9.892;2022-09-20T07:08:19;100999.00;;;15.00
20103;BMP180;10210;52.284;9.892;2022-09-20T07:10:45;101006.00;;;15.10
20103;BMP180;10210;52.284;9.892;2022-09-20T07:13:11;101012.00;;;15.10
20103;BMP180;10210;52.284;9.892;2022-09-20T07:15:39;101013.00;;;15.10
20103;BMP180;10210;52.284;9.892;2022-09-20T07:18:06;101016.00;;;15.10
20103;BMP180;10210;52.284;9.892;2022-09-20T07:20:32;101009.00;;;15.20
20103;BMP180;10210;52.284;9.892;2022-09-20T07:22:58;101013.00;;;15.20
20103;BMP180;10210;52.284;9.892;2022-09-20T07:25:24;101021.00;;;15.20
20103;BMP180;10210;52.284;9.892;2022-09-20T07:27:50;101024.00;;;15.30
20103;BMP180;10210;52.284;9.892;2022-09-20T07:30:19;101022.00;;;15.30
20103;BMP180;10210;52.284;9.892;2022-09-20T07:32:46;101026.00;;;15.30
20103;BMP180;10210;52.284;9.892;2022-09-20T07:35:12;101021.00;;;15.40
20103;BMP180;10210;52.284;9.892;2022-09-20T07:37:38;101033.00;;;15.40
20103;BMP180;10210;52.284;9.892;2022-09-20T07:40:08;101024.00;;;15.50
20103;BMP180;10210;52.284;9.892;2022-09-20T07:42:34;101020.00;;;15.50
20103;BMP180;10210;52.284;9.892;2022-09-20T07:44:59;101029.00;;;15.60
20103;BMP180;10210;52.284;9.892;2022-09-20T07:47:28;101030.00;;;15.60
20103;BMP180;10210;52.284;9.892;2022-09-20T07:49:56;101037.00;;;15.60
20103;BMP180;10210;52.284;9.892;2022-09-20T07:52:23;101045.00;;;15.70
20103;BMP180;10210;52.284;9.892;2022-09-20T07:54:48;101046.00;;;15.70
20103;BMP180;10210;52.284;9.892;2022-09-20T07:57:15;101049.00;;;15.70
20103;BMP180;10210;52.284;9.892;2022-09-20T07:59:41;101046.00;;;15.70
20103;BMP180;10210;52.284;9.892;2022-09-20T08:02:13;101042.00;;;15.80
20103;BMP180;10210;52.284;9.892;2022-09-20T08:04:39;101055.00;;;15.80
20103;BMP180;10210;52.284;9.892;2022-09-20T08:07:05;101049.00;;;15.90
20103;BMP180;10210;52.284;9.892;2022-09-20T08:09:30;101057.00;;;15.90
20103;BMP180;10210;52.284;9.892;2022-09-20T08:11:56;101055.00;;;16.00
20103;BMP180;10210;52.284;9.892;2022-09-20T08:14:22;101057.00;;;16.00
20103;BMP180;10210;52.284;9.892;2022-09-20T08:16:49;101057.00;;;16.00
20103;BMP180;10210;52.284;9.892;2022-09-20T08:19:22;101067.00;;;16.10
20103;BMP180;10210;52.284;9.892;2022-09-20T08:21:50;101065.00;;;16.40
20103;BMP180;10210;52.284;9.892;2022-09-20T08:24:17;101065.00;;;16.70
20103;BMP180;10210;52.284;9.892;2022-09-20T08:26:43;101055.00;;;16.80
20103;BMP180;10210;52.284;9.892;2022-09-20T08:29:10;101071.00;;;16.90
20103;BMP180;10210;52.284;9.892;2022-09-20T08:31:38;101063.00;;;17.10
20103;BMP180;10210;52.284;9.892;2022-09-20T08:34:06;101073.00;;;17.10
20103;BMP180;10210;52.284;9.892;2022-09-20T08:36:35;101071.00;;;17.20
20103;BMP180;10210;52.284;9.892;2022-09-20T08:39:07;101081.00;;;17.20
20103;BMP180;10210;52.284;9.892;2022-09-20T08:41:44;101084.00;;;17.20
20103;BMP180;10210;52.284;9.892;2022-09-20T08:47:06;101084.00;;;17.10
20103;BMP180;10210;52.284;9.892;2022-09-20T08:49:34;101086.00;;;17.10
20103;BMP180;10210;52.284;9.892;2022-09-20T08:52:02;101093.00;;;17.10
20103;BMP180;10210;52.284;9.892;2022-09-20T08:54:31;101091.00;;;17.10
20103;BMP180;10210;52.284;9.892;2022-09-20T08:57:03;101092.00;;;17.20
20103;BMP180;10210;52.284;9.892;2022-09-20T08:59:32;101105.00;;;17.30
20103;BMP180;10210;52.284;9.892;2022-09-20T09:01:58;101090.00;;;17.40
20103;BMP180;10210;52.284;9.892;2022-09-20T09:04:34;101091.00;;;17.40
20103;BMP180;10210;52.284;9.892;2022-09-20T09:07:00;101099.00;;;17.50
20103;BMP180;10210;52.284;9.892;2022-09-20T09:09:28;101100.00;;;17.50
20103;BMP180;10210;52.284;9.892;2022-09-20T09:11:56;101095.00;;;17.60
20103;BMP180;10210;52.284;9.892;2022-09-20T09:14:33;101104.00;;;17.50
20103;BMP180;10210;52.284;9.892;2022-09-20T09:17:26;101100.00;;;17.50
20103;BMP180;10210;52.284;9.892;2022-09-20T09:20:17;101094.00;;;17.40
20103;BMP180;10210;52.284;9.892;2022-09-20T09:22:48;101092.00;;;17.50
20103;BMP180;10210;52.284;9.892;2022-09-20T09:25:28;101104.00;;;17.50
20103;BMP180;10210;52.284;9.892;2022-09-20T09:30:45;101101.00;;;17.40
20103;BMP180;10210;52.284;9.892;2022-09-20T09:33:29;101100.00;;;17.40
20103;BMP180;10210;52.284;9.892;2022-09-20T09:36:06;101117.00;;;17.40
20103;BMP180;10210;52.284;9.892;2022-09-20T09:38:38;101108.00;;;17.50
20103;BMP180;10210;52.284;9.892;2022-09-20T09:41:31;101104.00;;;17.40
20103;BMP180;10210;52.284;9.892;2022-09-20T09:46:48;101112.00;;;17.60
20103;BMP180;10210;52.284;9.892;2022-09-20T09:49:25;101115.00;;;17.60
20103;BMP180;10210;52.284;9.892;2022-09-20T09:52:12;101106.00;;;17.60
20103;BMP180;10210;52.284;9.892;2022-09-20T09:54:47;101113.00;;;17.80
20103;BMP180;10210;52.284;9.892;2022-09-20T09:58:02;101107.00;;;17.80
20103;BMP180;10210;52.284;9.892;2022-09-20T10:00:30;101106.00;;;17.90
20103;BMP180;10210;52.284;9.892;2022-09-20T10:03:24;101109.00;;;18.00
20103;BMP180;10210;52.284;9.892;2022-09-20T10:06:22;101114.00;;;18.00
20103;BMP180;10210;52.284;9.892;2022-09-20T10:09:16;101119.00;;;18.00
20103;BMP180;10210;52.284;9.892;2022-09-20T10:19:25;101106.00;;;18.10
20103;BMP180;10210;52.284;9.892;2022-09-20T10:21:46;101107.00;;;18.20
20103;BMP180;10210;52.284;9.892;2022-09-20T10:27:17;101114.00;;;18.20
20103;BMP180;10210;52.284;9.892;2022-09-20T10:30:36;101107.00;;;18.20
20103;BMP180;10210;52.284;9.892;2022-09-20T10:33:25;101112.00;;;18.30
20103;BMP180;10210;52.284;9.892;2022-09-20T10:36:23;101110.00;;;18.40
20103;BMP180;10210;52.284;9.892;2022-09-20T10:39:24;101113.00;;;18.40
20103;BMP180;10210;52.284;9.892;2022-09-20T10:42:43;101113.00;;;18.50
20103;BMP180;10210;52.284;9.892;2022-09-20T10:45:39;101117.00;;;18.60
20103;BMP180;10210;52.284;9.892;2022-09-20T10:48:31;101115.00;;;18.60
20103;BMP180;10210;52.284;9.892;2022-09-20T10:51:17;101108.00;;;18.70
20103;BMP180;10210;52.284;9.892;2022-09-20T10:54:40;101112.00;;;18.70
20103;BMP180;10210;52.284;9.892;2022-09-20T10:56:55;101111.00;;;18.70
20103;BMP180;10210;52.284;9.892;2022-09-20T10:59:49;101118.00;;;18.80
20103;BMP180;10210;52.284;9.892;2022-09-20T11:05:42;101115.00;;;18.90
20103;BMP180;10210;52.284;9.892;2022-09-20T11:08:22;101108.00;;;19.00
20103;BMP180;10210;52.284;9.892;2022-09-20T11:16:39;101118.00;;;19.40
20103;BMP180;10210;52.284;9.892;2022-09-20T11:19:19;101114.00;;;19.50
20103;BMP180;10210;52.284;9.892;2022-09-20T11:22:12;101116.00;;;19.60
20103;BMP180;10210;52.284;9.892;2022-09-20T11:24:50;101110.00;;;19.70
20103;BMP180;10210;52.284;9.892;2022-09-20T11:27:27;101117.00;;;19.70
20103;BMP180;10210;52.284;9.892;2022-09-20T11:30:06;101116.00;;;19.70
20103;BMP180;10210;52.284;9.892;2022-09-20T11:35:33;101117.00;;;19.80
20103;BMP180;10210;52.284;9.892;2022-09-20T11:38:15;101120.00;;;19.80
20103;BMP180;10210;52.284;9.892;2022-09-20T11:40:54;101116.00;;;19.80
20103;BMP180;10210;52.284;9.892;2022-09-20T11:43:22;101115.00;;;19.90
20103;BMP180;10210;52.284;9.892;2022-09-20T11:46:07;101124.00;;;19.80
20103;BMP180;10210;52.284;9.892;2022-09-20T11:48:44;101121.00;;;19.80
20103;BMP180;10210;52.284;9.892;2022-09-20T11:51:52;101128.00;;;19.70
20103;BMP180;10210;52.284;9.892;2022-09-20T11:57:20;101122.00;;;19.60
20103;BMP180;10210;52.284;9.892;2022-09-20T12:00:00;101132.00;;;19.60
20103;BMP180;10210;52.284;9.892;2022-09-20T12:02:46;101132.00;;;19.60
20103;BMP180;10210;52.284;9.892;2022-09-20T12:05:33;101127.00;;;19.70
20103;BMP180;10210;52.284;9.892;2022-09-20T12:08:07;101123.00;;;19.80
20103;BMP180;10210;52.284;9.892;2022-09-20T12:10:41;101134.00;;;19.90
20103;BMP180;10210;52.284;9.892;2022-09-20T12:13:21;101121.00;;;19.90
20103;BMP180;10210;52.284;9.892;2022-09-20T12:16:07;101128.00;;;20.00
20103;BMP180;10210;52.284;9.892;2022-09-20T12:21:00;101122.00;;;20.20
20103;BMP180;10210;52.284;9.892;2022-09-20T12:28:56;101121.00;;;20.40
20103;BMP180;10210;52.284;9.892;2022-09-20T12:39:24;101127.00;;;20.70
20103;BMP180;10210;52.284;9.892;2022-09-20T12:42:26;101127.00;;;20.70
20103;BMP180;10210;52.284;9.892;2022-09-20T12:45:15;101115.00;;;20.80
20103;BMP180;10210;52.284;9.892;2022-09-20T12:47:54;101119.00;;;20.90
20103;BMP180;10210;52.284;9.892;2022-09-20T12:50:22;101119.00;;;20.90
20103;BMP180;10210;52.284;9.892;2022-09-20T12:53:14;101108.00;;;20.80
20103;BMP180;10210;52.284;9.892;2022-09-20T12:56:04;101122.00;;;20.70
20103;BMP180;10210;52.284;9.892;2022-09-20T12:58:54;101116.00;;;20.70
20103;BMP180;10210;52.284;9.892;2022-09-20T13:03:49;101113.00;;;20.70
20103;BMP180;10210;52.284;9.892;2022-09-20T13:11:44;101102.00;;;20.50
20103;BMP180;10210;52.284;9.892;2022-09-20T13:14:31;101110.00;;;20.50
20103;BMP180;10210;52.284;9.892;2022-09-20T13:17:02;101118.00;;;20.50
20103;BMP180;10210;52.284;9.892;2022-09-20T13:19:44;101114.00;;;20.50
20103;BMP180;10210;52.284;9.892;2022-09-20T13:24:50;101120.00;;;20.60
20103;BMP180;10210;52.284;9.892;2022-09-20T13:27:30;101127.00;;;20.70
20103;BMP180;10210;52.284;9.892;2022-09-20T13:32:34;101119.00;;;20.90
20103;BMP180;10210;52.284;9.892;2022-09-20T13:37:55;101128.00;;;21.00
20103;BMP180;10210;52.284;9.892;2022-09-20T13:43:05;101120.00;;;21.10
20103;BMP180;10210;52.284;9.892;2022-09-20T13:45:32;101122.00;;;21.10
20103;BMP180;10210;52.284;9.892;2022-09-20T13:48:01;101127.00;;;21.10
20103;BMP180;10210;52.284;9.892;2022-09-20T13:50:31;101115.00;;;21.10
20103;BMP180;10210;52.284;9.892;2022-09-20T13:53:01;101136.00;;;21.10
20103;BMP180;10210;52.284;9.892;2022-09-20T13:55:38;101130.00;;;21.00
20103;BMP180;10210;52.284;9.892;2022-09-20T13:58:31;101139.00;;;20.90
20103;BMP180;10210;52.284;9.892;2022-09-20T14:01:05;101142.00;;;20.80
20103;BMP180;10210;52.284;9.892;2022-09-20T14:03:33;101147.00;;;20.80
20103;BMP180;10210;52.284;9.892;2022-09-20T14:06:12;101150.00;;;20.70
20103;BMP180;10210;52.284;9.892;2022-09-20T14:08:43;101146.00;;;20.60
20103;BMP180;10210;52.284;9.892;2022-09-20T14:11:22;101149.00;;;20.60
20103;BMP180;10210;52.284;9.892;2022-09-20T14:13:54;101153.00;;;20.50
20103;BMP180;10210;52.284;9.892;2022-09-20T14:16:27;101147.00;;;20.40
20103;BMP180;10210;52.284;9.892;2022-09-20T14:18:55;101158.00;;;20.40
20103;BMP180;10210;52.284;9.892;2022-09-20T14:21:26;101152.00;;;20.30
20103;BMP180;10210;52.284;9.892;2022-09-20T14:23:59;101160.00;;;20.30
20103;BMP180;10210;52.284;9.892;2022-09-20T14:26:32;101172.00;;;20.20
20103;BMP180;10210;52.284;9.892;2022-09-20T14:34:55;101159.00;;;20.10
20103;BMP180;10210;52.284;9.892;2022-09-20T14:37:23;101159.00;;;20.10
20103;BMP180;10210;52.284;9.892;2022-09-20T14:39:55;101160.00;;;20.00
20103;BMP180;10210;52.284;9.892;2022-09-20T14:42:57;101163.00;;;20.00
20103;BMP180;10210;52.284;9.892;2022-09-20T14:45:34;101165.00;;;20.00
20103;BMP180;10210;52.284;9.892;2022-09-20T14:53:46;101161.00;;;19.90
20103;BMP180;10210;52.284;9.892;2022-09-20T14:56:15;101162.00;;;19.90
20103;BMP180;10210;52.284;9.892;2022-09-20T14:59:26;101164.00;;;19.90
20103;BMP180;10210;52.284;9.892;2022-09-20T15:04:29;101164.00;;;19.90
20103;BMP180;10210;52.284;9.892;2022-09-20T15:07:01;101160.00;;;19.90
20103;BMP180;10210;52.284;9.892;2022-09-20T15:09:31;101165.00;;;20.00
20103;BMP180;10210;52.284;9.892;2022-09-20T15:12:19;101171.00;;;20.00
20103;BMP180;10210;52.284;9.892;2022-09-20T15:14:47;101165.00;;;20.10
20103;BMP180;10210;52.284;9.892;2022-09-20T15:17:19;101165.00;;;20.10
20103;BMP180;10210;52.284;9.892;2022-09-20T15:19:47;101172.00;;;20.20
20103;BMP180;10210;52.284;9.892;2022-09-20T15:22:14;101166.00;;;20.20
20103;BMP180;10210;52.284;9.892;2022-09-20T15:24:41;101168.00;;;20.20
20103;BMP180;10210;52.284;9.892;2022-09-20T15:27:10;101171.00;;;20.20
20103;BMP180;10210;52.284;9.892;2022-09-20T15:29:36;101177.00;;;20.20
20103;BMP180;10210;52.284;9.892;2022-09-20T15:32:09;101177.00;;;20.30
20103;BMP180;10210;52.284;9.892;2022-09-20T15:34:35;101168.00;;;20.30
20103;BMP180;10210;52.284;9.892;2022-09-20T15:37:01;101168.00;;;20.40
20103;BMP180;10210;52.284;9.892;2022-09-20T15:39:26;101171.00;;;20.40
20103;BMP180;10210;52.284;9.892;2022-09-20T15:41:54;101171.00;;;20.40
20103;BMP180;10210;52.284;9.892;2022-09-20T15:44:20;101174.00;;;20.40
20103;BMP180;10210;52.284;9.892;2022-09-20T15:46:46;101176.00;;;20.40
20103;BMP180;10210;52.284;9.892;2022-09-20T15:49:14;101176.00;;;20.40
20103;BMP180;10210;52.284;9.892;2022-09-20T15:51:39;101173.00;;;20.40
20103;BMP180;10210;52.284;9.892;2022-09-20T15:54:06;101171.00;;;20.50
20103;BMP180;10210;52.284;9.892;2022-09-20T15:56:37;101167.00;;;20.50
20103;BMP180;10210;52.284;9.892;2022-09-20T15:59:08;101171.00;;;20.50
20103;BMP180;10210;52.284;9.892;2022-09-20T16:01:40;101174.00;;;20.40
20103;BMP180;10210;52.284;9.892;2022-09-20T16:04:11;101175.00;;;20.40
20103;BMP180;10210;52.284;9.892;2022-09-20T16:06:39;101182.00;;;20.40
20103;BMP180;10210;52.284;9.892;2022-09-20T16:09:06;101179.00;;;20.30
20103;BMP180;10210;52.284;9.892;2022-09-20T16:11:32;101186.00;;;20.30
20103;BMP180;10210;52.284;9.892;2022-09-20T16:13:59;101184.00;;;20.30
20103;BMP180;10210;52.284;9.892;2022-09-20T16:16:28;101184.00;;;20.20
20103;BMP180;10210;52.284;9.892;2022-09-20T16:18:54;101185.00;;;20.20
20103;BMP180;10210;52.284;9.892;2022-09-20T16:21:41;101190.00;;;20.10
20103;BMP180;10210;52.284;9.892;2022-09-20T16:24:08;101186.00;;;20.10
20103;BMP180;10210;52.284;9.892;2022-09-20T16:26:35;101190.00;;;20.00
20103;BMP180;10210;52.284;9.892;2022-09-20T16:29:02;101189.00;;;19.90
20103;BMP180;10210;52.284;9.892;2022-09-20T16:31:42;101188.00;;;19.90
20103;BMP180;10210;52.284;9.892;2022-09-20T16:34:32;101199.00;;;19.80
20103;BMP180;10210;52.284;9.892;2022-09-20T16:37:09;101195.00;;;19.80
20103;BMP180;10210;52.284;9.892;2022-09-20T16:39:36;101195.00;;;19.80
20103;BMP180;10210;52.284;9.892;2022-09-20T16:42:07;101203.00;;;19.80
20103;BMP180;10210;52.284;9.892;2022-09-20T16:44:35;101203.00;;;19.80
20103;BMP180;10210;52.284;9.892;2022-09-20T16:47:03;101208.00;;;19.70
20103;BMP180;10210;52.284;9.892;2022-09-20T16:49:34;101206.00;;;19.70
20103;BMP180;10210;52.284;9.892;2022-09-20T16:52:04;101218.00;;;19.70
20103;BMP180;10210;52.284;9.892;2022-09-20T16:54:30;101216.00;;;19.60
20103;BMP180;10210;52.284;9.892;2022-09-20T16:56:55;101213.00;;;19.60
20103;BMP180;10210;52.284;9.892;2022-09-20T16:59:21;101220.00;;;19.60
20103;BMP180;10210;52.284;9.892;2022-09-20T17:01:48;101216.00;;;19.60
20103;BMP180;10210;52.284;9.892;2022-09-20T17:04:16;101223.00;;;19.50
20103;BMP180;10210;52.284;9.892;2022-09-20T17:06:47;101225.00;;;19.50
20103;BMP180;10210;52.284;9.892;2022-09-20T17:09:15;101225.00;;;19.40
20103;BMP180;10210;52.284;9.892;2022-09-20T17:11:47;101234.00;;;19.40
20103;BMP180;10210;52.284;9.892;2022-09-20T17:14:16;101226.00;;;19.40
20103;BMP180;10210;52.284;9.892;2022-09-20T17:16:43;101235.00;;;19.40
20103;BMP180;10210;52.284;9.892;2022-09-20T17:19:15;101236.00;;;19.30
20103;BMP180;10210;52.284;9.892;2022-09-20T17:21:45;101249.00;;;19.30
20103;BMP180;10210;52.284;9.892;2022-09-20T17:24:16;101240.00;;;19.30
20103;BMP180;10210;52.284;9.892;2022-09-20T17:26:43;101240.00;;;19.30
20103;BMP180;10210;52.284;9.892;2022-09-20T17:29:15;101247.00;;;19.80
20103;BMP180;10210;52.284;9.892;2022-09-20T17:31:45;101255.00;;;19.50
20103;BMP180;10210;52.284;9.892;2022-09-20T17:34:13;101262.00;;;19.30
20103;BMP180;10210;52.284;9.892;2022-09-20T17:36:44;101265.00;;;19.30
20103;BMP180;10210;52.284;9.892;2022-09-20T17:39:12;101273.00;;;19.20
20103;BMP180;10210;52.284;9.892;2022-09-20T17:41:45;101272.00;;;19.20
20103;BMP180;10210;52.284;9.892;2022-09-20T17:44:11;101266.00;;;19.20
20103;BMP180;10210;52.284;9.892;2022-09-20T17:46:40;101269.00;;;19.20
20103;BMP180;10210;52.284;9.892;2022-09-20T17:49:09;101284.00;;;19.20
20103;BMP180;10210;52.284;9.892;2022-09-20T17:51:39;101284.00;;;19.10
20103;BMP180;10210;52.284;9.892;2022-09-20T17:54:05;101283.00;;;19.10
20103;BMP180;10210;52.284;9.892;2022-09-20T17:56:32;101288.00;;;19.10
20103;BMP180;10210;52.284;9.892;2022-09-20T17:59:00;101289.00;;;19.00
20103;BMP180;10210;52.284;9.892;2022-09-20T18:01:27;101286.00;;;19.00
20103;BMP180;10210;52.284;9.892;2022-09-20T18:03:57;101291.00;;;18.90
20103;BMP180;10210;52.284;9.892;2022-09-20T18:06:29;101290.00;;;18.80
20103;BMP180;10210;52.284;9.892;2022-09-20T18:09:05;101296.00;;;18.80
20103;BMP180;10210;52.284;9.892;2022-09-20T18:11:43;101304.00;;;18.70
20103;BMP180;10210;52.284;9.892;2022-09-20T18:14:20;101306.00;;;18.70
20103;BMP180;10210;52.284;9.892;2022-09-20T18:16:51;101300.00;;;18.60
20103;BMP180;10210;52.284;9.892;2022-09-20T18:19:17;101306.00;;;18.60
20103;BMP180;10210;52.284;9.892;2022-09-20T18:21:43;101310.00;;;18.60
20103;BMP180;10210;52.284;9.892;2022-09-20T18:24:10;101314.00;;;18.50
20103;BMP180;10210;52.284;9.892;2022-09-20T18:26:37;101315.00;;;18.50
20103;BMP180;10210;52.284;9.892;2022-09-20T18:29:09;101309.00;;;18.50
20103;BMP180;10210;52.284;9.892;2022-09-20T18:31:50;101313.00;;;18.40
20103;BMP180;10210;52.284;9.892;2022-09-20T18:34:24;101310.00;;;18.40
20103;BMP180;10210;52.284;9.892;2022-09-20T18:36:54;101316.00;;;18.40
20103;BMP180;10210;52.284;9.892;2022-09-20T18:39:31;101314.00;;;18.30
20103;BMP180;10210;52.284;9.892;2022-09-20T18:41:58;101326.00;;;18.30
20103;BMP180;10210;52.284;9.892;2022-09-20T18:44:24;101321.00;;;18.30